ROMMA est une association bénévole à but non lucratif. Votre soutien est indispensable : ADHERER à ROMMA ou FAIRE un DON

Briord - (01, Ain)

Bugey (281 m)   Longitude: 05° 29' 13" E   Latitude: 45° 46' 37" N Station partenaire n°15
 

Détail journalier du     <<     >>

Température Precipitation Humidité Pression Vent Dir Rafale Dir. rafale Ensol.
Heure (°C) (mm) (%) (hPa) (km/h) (km/h) (min)
01:00 3.8090101102E0
02:00 3.4091101100---0
03:00 3.1092101100---0
04:00 2.7093101100---0
05:00 2.4093101100---0
06:00 1.8093101100---0
07:00 1.7094101100---0
08:00 2.0094101100---0
09:00 5.2093101100---40
10:00 7.8089101105ONO60
11:00 9.908410101ONO5O60
12:00 11.707910102ONO11O60
13:00 13.507410094ONO19O60
14:00 14.807010096O19O55
15:00 16.406310085O24OSO25
16:00 16.706010079ONO26ONO50
17:00 17.1056100612NO29NO50
18:00 17.5055100612NO31ONO60
19:00 16.3055100611N27NO60
20:00 14.705610075NNO23NNE30
21:00 13.605810075NO21N0
22:00 11.0073100806NO0
23:00 11.408210092SSE10SSE0
minuit 9.30.289100803SE0

Graphique du 09-04-2019

 

Serveur OMMA